sensor_id;sensor_type;location;lat;lon;timestamp;temperature;humidity
1476;DHT22;730;48.870;12.542;2023-01-23T00:01:06;2.40;3.10
1476;DHT22;730;48.870;12.542;2023-01-23T00:03:32;2.40;3.20
1476;DHT22;730;48.870;12.542;2023-01-23T00:06:00;2.30;3.30
1476;DHT22;730;48.870;12.542;2023-01-23T00:08:27;2.30;3.40
1476;DHT22;730;48.870;12.542;2023-01-23T00:10:54;2.40;3.50
1476;DHT22;730;48.870;12.542;2023-01-23T00:13:20;2.40;3.30
1476;DHT22;730;48.870;12.542;2023-01-23T00:15:46;2.40;3.20
1476;DHT22;730;48.870;12.542;2023-01-23T00:18:13;2.30;3.20
1476;DHT22;730;48.870;12.542;2023-01-23T00:20:40;2.30;3.40
1476;DHT22;730;48.870;12.542;2023-01-23T00:23:09;2.30;3.20
1476;DHT22;730;48.870;12.542;2023-01-23T00:25:36;2.30;3.20
1476;DHT22;730;48.870;12.542;2023-01-23T00:28:03;2.30;2.90
1476;DHT22;730;48.870;12.542;2023-01-23T00:30:29;2.30;2.80
1476;DHT22;730;48.870;12.542;2023-01-23T00:32:55;2.30;2.30
1476;DHT22;730;48.870;12.542;2023-01-23T00:35:21;2.20;2.30
1476;DHT22;730;48.870;12.542;2023-01-23T00:37:47;2.10;2.40
1476;DHT22;730;48.870;12.542;2023-01-23T00:40:13;2.10;2.50
1476;DHT22;730;48.870;12.542;2023-01-23T00:42:39;2.10;2.20
1476;DHT22;730;48.870;12.542;2023-01-23T00:45:06;2.10;2.40
1476;DHT22;730;48.870;12.542;2023-01-23T00:47:32;2.00;2.50
1476;DHT22;730;48.870;12.542;2023-01-23T00:49:59;2.00;2.90
1476;DHT22;730;48.870;12.542;2023-01-23T00:52:26;2.00;3.30
1476;DHT22;730;48.870;12.542;2023-01-23T00:54:52;2.00;3.40
1476;DHT22;730;48.870;12.542;2023-01-23T00:57:18;1.90;3.70
1476;DHT22;730;48.870;12.542;2023-01-23T00:59:44;2.00;3.70
1476;DHT22;730;48.870;12.542;2023-01-23T01:02:11;2.00;3.70
1476;DHT22;730;48.870;12.542;2023-01-23T01:04:37;2.00;3.70
1476;DHT22;730;48.870;12.542;2023-01-23T01:07:03;2.00;3.70
1476;DHT22;730;48.870;12.542;2023-01-23T01:09:29;2.00;3.70
1476;DHT22;730;48.870;12.542;2023-01-23T01:11:55;2.00;3.80
1476;DHT22;730;48.870;12.542;2023-01-23T01:14:21;2.10;3.90
1476;DHT22;730;48.870;12.542;2023-01-23T01:16:47;2.10;3.70
1476;DHT22;730;48.870;12.542;2023-01-23T01:19:15;2.10;3.70
1476;DHT22;730;48.870;12.542;2023-01-23T01:21:42;2.10;3.60
1476;DHT22;730;48.870;12.542;2023-01-23T01:24:09;2.10;3.50
1476;DHT22;730;48.870;12.542;2023-01-23T01:26:35;2.20;3.70
1476;DHT22;730;48.870;12.542;2023-01-23T01:29:01;2.20;2.70
1476;DHT22;730;48.870;12.542;2023-01-23T01:31:28;2.20;2.20
1476;DHT22;730;48.870;12.542;2023-01-23T01:33:54;2.20;2.30
1476;DHT22;730;48.870;12.542;2023-01-23T01:36:22;2.20;2.20
1476;DHT22;730;48.870;12.542;2023-01-23T01:38:49;2.20;2.30
1476;DHT22;730;48.870;12.542;2023-01-23T01:41:16;2.20;2.30
1476;DHT22;730;48.870;12.542;2023-01-23T01:43:43;2.20;2.30
1476;DHT22;730;48.870;12.542;2023-01-23T01:46:19;2.20;2.70
1476;DHT22;730;48.870;12.542;2023-01-23T01:51:40;2.20;1.70
1476;DHT22;730;48.870;12.542;2023-01-23T01:54:40;2.20;1.70
1476;DHT22;730;48.870;12.542;2023-01-23T01:57:37;2.10;1.70
1476;DHT22;730;48.870;12.542;2023-01-23T02:00:10;2.10;1.70
1476;DHT22;730;48.870;12.542;2023-01-23T02:02:46;2.10;1.60
1476;DHT22;730;48.870;12.542;2023-01-23T02:05:17;2.10;1.80
1476;DHT22;730;48.870;12.542;2023-01-23T02:08:01;2.10;2.00
1476;DHT22;730;48.870;12.542;2023-01-23T02:10:29;2.10;2.00
1476;DHT22;730;48.870;12.542;2023-01-23T02:15:50;2.00;2.00
1476;DHT22;730;48.870;12.542;2023-01-23T02:18:22;2.00;1.90
1476;DHT22;730;48.870;12.542;2023-01-23T02:20:53;2.00;1.80
1476;DHT22;730;48.870;12.542;2023-01-23T02:26:15;2.00;2.00
1476;DHT22;730;48.870;12.542;2023-01-23T02:28:48;1.90;2.00
1476;DHT22;730;48.870;12.542;2023-01-23T02:31:14;1.90;2.20
1476;DHT22;730;48.870;12.542;2023-01-23T02:33:49;1.80;2.40
1476;DHT22;730;48.870;12.542;2023-01-23T02:36:18;1.80;2.80
1476;DHT22;730;48.870;12.542;2023-01-23T02:39:12;1.80;3.10
1476;DHT22;730;48.870;12.542;2023-01-23T02:44:28;1.70;3.40
1476;DHT22;730;48.870;12.542;2023-01-23T02:47:02;1.70;3.80
1476;DHT22;730;48.870;12.542;2023-01-23T02:49:30;1.60;4.00
1476;DHT22;730;48.870;12.542;2023-01-23T02:51:56;1.60;4.20
1476;DHT22;730;48.870;12.542;2023-01-23T02:54:23;1.60;4.50
1476;DHT22;730;48.870;12.542;2023-01-23T02:56:49;1.60;4.60
1476;DHT22;730;48.870;12.542;2023-01-23T02:59:15;1.60;4.80
1476;DHT22;730;48.870;12.542;2023-01-23T03:02:00;1.60;4.90
1476;DHT22;730;48.870;12.542;2023-01-23T03:04:26;1.60;5.00
1476;DHT22;730;48.870;12.542;2023-01-23T03:06:52;1.60;5.00
1476;DHT22;730;48.870;12.542;2023-01-23T03:09:18;1.60;4.80
1476;DHT22;730;48.870;12.542;2023-01-23T03:11:45;1.60;4.40
1476;DHT22;730;48.870;12.542;2023-01-23T03:14:16;1.60;4.40
1476;DHT22;730;48.870;12.542;2023-01-23T03:16:42;1.60;4.10
1476;DHT22;730;48.870;12.542;2023-01-23T03:19:13;1.60;4.50
1476;DHT22;730;48.870;12.542;2023-01-23T03:21:39;1.50;3.60
1476;DHT22;730;48.870;12.542;2023-01-23T03:24:10;1.50;3.70
1476;DHT22;730;48.870;12.542;2023-01-23T03:26:38;1.50;3.70
1476;DHT22;730;48.870;12.542;2023-01-23T03:29:04;1.50;3.60
1476;DHT22;730;48.870;12.542;2023-01-23T03:31:49;1.50;3.40
1476;DHT22;730;48.870;12.542;2023-01-23T03:34:15;1.40;3.10
1476;DHT22;730;48.870;12.542;2023-01-23T03:36:43;1.40;2.90
1476;DHT22;730;48.870;12.542;2023-01-23T03:39:10;1.40;3.00
1476;DHT22;730;48.870;12.542;2023-01-23T03:41:55;1.30;2.70
1476;DHT22;730;48.870;12.542;2023-01-23T03:44:21;1.30;2.40
1476;DHT22;730;48.870;12.542;2023-01-23T03:46:49;1.30;2.40
1476;DHT22;730;48.870;12.542;2023-01-23T03:49:15;1.20;2.00
1476;DHT22;730;48.870;12.542;2023-01-23T03:51:42;1.10;2.20
1476;DHT22;730;48.870;12.542;2023-01-23T03:54:08;1.00;2.50
1476;DHT22;730;48.870;12.542;2023-01-23T03:56:34;0.90;2.70
1476;DHT22;730;48.870;12.542;2023-01-23T03:59:00;0.90;3.10
1476;DHT22;730;48.870;12.542;2023-01-23T04:01:29;0.80;3.30
1476;DHT22;730;48.870;12.542;2023-01-23T04:03:55;0.80;3.30
1476;DHT22;730;48.870;12.542;2023-01-23T04:06:21;0.80;3.60
1476;DHT22;730;48.870;12.542;2023-01-23T04:08:47;0.80;3.90
1476;DHT22;730;48.870;12.542;2023-01-23T04:11:13;0.80;3.90
1476;DHT22;730;48.870;12.542;2023-01-23T04:13:39;0.80;3.90
1476;DHT22;730;48.870;12.542;2023-01-23T04:16:06;0.90;3.80
1476;DHT22;730;48.870;12.542;2023-01-23T04:18:32;0.90;3.70
1476;DHT22;730;48.870;12.542;2023-01-23T04:20:59;0.90;3.60
1476;DHT22;730;48.870;12.542;2023-01-23T04:23:25;0.90;3.80
1476;DHT22;730;48.870;12.542;2023-01-23T04:25:51;0.90;3.50
1476;DHT22;730;48.870;12.542;2023-01-23T04:28:18;0.90;3.60
1476;DHT22;730;48.870;12.542;2023-01-23T04:30:45;0.80;3.40
1476;DHT22;730;48.870;12.542;2023-01-23T04:33:11;0.90;3.10
1476;DHT22;730;48.870;12.542;2023-01-23T04:36:01;0.90;3.00
1476;DHT22;730;48.870;12.542;2023-01-23T04:38:32;0.90;2.70
1476;DHT22;730;48.870;12.542;2023-01-23T04:40:58;0.80;2.20
1476;DHT22;730;48.870;12.542;2023-01-23T04:43:25;0.80;3.00
1476;DHT22;730;48.870;12.542;2023-01-23T04:45:52;0.80;2.90
1476;DHT22;730;48.870;12.542;2023-01-23T04:48:18;0.80;3.00
1476;DHT22;730;48.870;12.542;2023-01-23T04:50:45;0.80;2.60
1476;DHT22;730;48.870;12.542;2023-01-23T04:53:11;0.70;2.50
1476;DHT22;730;48.870;12.542;2023-01-23T04:55:37;0.80;2.50
1476;DHT22;730;48.870;12.542;2023-01-23T04:58:03;0.70;2.90
1476;DHT22;730;48.870;12.542;2023-01-23T05:00:29;0.70;3.10
1476;DHT22;730;48.870;12.542;2023-01-23T05:02:55;0.80;3.40
1476;DHT22;730;48.870;12.542;2023-01-23T05:05:22;0.80;3.50
1476;DHT22;730;48.870;12.542;2023-01-23T05:07:49;0.70;3.20
1476;DHT22;730;48.870;12.542;2023-01-23T05:10:16;0.70;3.60
1476;DHT22;730;48.870;12.542;2023-01-23T05:12:42;0.70;3.60
1476;DHT22;730;48.870;12.542;2023-01-23T05:15:09;0.70;3.80
1476;DHT22;730;48.870;12.542;2023-01-23T05:17:36;0.60;3.80
1476;DHT22;730;48.870;12.542;2023-01-23T05:20:02;0.60;4.50
1476;DHT22;730;48.870;12.542;2023-01-23T05:22:28;0.60;4.80
1476;DHT22;730;48.870;12.542;2023-01-23T05:24:55;0.70;4.70
1476;DHT22;730;48.870;12.542;2023-01-23T05:27:21;0.60;4.50
1476;DHT22;730;48.870;12.542;2023-01-23T05:29:47;0.60;5.10
1476;DHT22;730;48.870;12.542;2023-01-23T05:32:13;0.60;5.80
1476;DHT22;730;48.870;12.542;2023-01-23T05:34:39;0.60;5.50
1476;DHT22;730;48.870;12.542;2023-01-23T05:37:05;0.70;5.90
1476;DHT22;730;48.870;12.542;2023-01-23T05:39:32;0.70;5.90
1476;DHT22;730;48.870;12.542;2023-01-23T05:41:58;0.70;5.90
1476;DHT22;730;48.870;12.542;2023-01-23T05:44:24;0.80;5.60
1476;DHT22;730;48.870;12.542;2023-01-23T05:46:50;0.80;5.40
1476;DHT22;730;48.870;12.542;2023-01-23T05:49:16;0.90;5.00
1476;DHT22;730;48.870;12.542;2023-01-23T05:51:43;0.90;4.80
1476;DHT22;730;48.870;12.542;2023-01-23T05:54:09;0.80;4.80
1476;DHT22;730;48.870;12.542;2023-01-23T05:56:35;0.90;4.80
1476;DHT22;730;48.870;12.542;2023-01-23T05:59:02;0.90;4.60
1476;DHT22;730;48.870;12.542;2023-01-23T06:01:30;0.90;4.40
1476;DHT22;730;48.870;12.542;2023-01-23T06:03:56;0.90;4.30
1476;DHT22;730;48.870;12.542;2023-01-23T06:06:22;0.90;4.50
1476;DHT22;730;48.870;12.542;2023-01-23T06:08:48;0.90;4.30
1476;DHT22;730;48.870;12.542;2023-01-23T06:11:14;0.90;4.00
1476;DHT22;730;48.870;12.542;2023-01-23T06:13:40;0.90;4.00
1476;DHT22;730;48.870;12.542;2023-01-23T06:16:07;0.80;3.90
1476;DHT22;730;48.870;12.542;2023-01-23T06:18:33;0.80;4.00
1476;DHT22;730;48.870;12.542;2023-01-23T06:21:00;0.90;4.10
1476;DHT22;730;48.870;12.542;2023-01-23T06:23:26;0.90;4.20
1476;DHT22;730;48.870;12.542;2023-01-23T06:25:52;0.90;4.10
1476;DHT22;730;48.870;12.542;2023-01-23T06:28:18;0.90;4.00
1476;DHT22;730;48.870;12.542;2023-01-23T06:30:44;0.90;4.00
1476;DHT22;730;48.870;12.542;2023-01-23T06:33:10;1.00;4.00
1476;DHT22;730;48.870;12.542;2023-01-23T06:35:36;1.00;3.90
1476;DHT22;730;48.870;12.542;2023-01-23T06:38:02;1.00;4.00
1476;DHT22;730;48.870;12.542;2023-01-23T06:40:28;1.00;3.90
1476;DHT22;730;48.870;12.542;2023-01-23T06:42:54;1.00;3.80
1476;DHT22;730;48.870;12.542;2023-01-23T06:45:21;1.10;3.70
1476;DHT22;730;48.870;12.542;2023-01-23T06:47:53;1.10;3.70
1476;DHT22;730;48.870;12.542;2023-01-23T06:50:19;1.00;4.00
1476;DHT22;730;48.870;12.542;2023-01-23T06:52:45;1.00;4.20
1476;DHT22;730;48.870;12.542;2023-01-23T06:55:11;1.00;4.20
1476;DHT22;730;48.870;12.542;2023-01-23T06:57:37;1.00;4.30
1476;DHT22;730;48.870;12.542;2023-01-23T07:00:04;1.00;4.20
1476;DHT22;730;48.870;12.542;2023-01-23T07:02:30;1.00;4.20
1476;DHT22;730;48.870;12.542;2023-01-23T07:04:56;1.00;4.40
1476;DHT22;730;48.870;12.542;2023-01-23T07:07:22;1.00;4.60
1476;DHT22;730;48.870;12.542;2023-01-23T07:09:48;1.00;4.80
1476;DHT22;730;48.870;12.542;2023-01-23T07:12:14;1.00;4.50
1476;DHT22;730;48.870;12.542;2023-01-23T07:14:40;1.00;4.70
1476;DHT22;730;48.870;12.542;2023-01-23T07:17:06;1.00;4.60
1476;DHT22;730;48.870;12.542;2023-01-23T07:19:32;1.10;4.50
1476;DHT22;730;48.870;12.542;2023-01-23T07:21:58;1.10;4.00
1476;DHT22;730;48.870;12.542;2023-01-23T07:24:30;1.20;4.10
1476;DHT22;730;48.870;12.542;2023-01-23T07:26:57;1.20;4.20
1476;DHT22;730;48.870;12.542;2023-01-23T07:29:23;1.20;3.90
1476;DHT22;730;48.870;12.542;2023-01-23T07:31:49;1.30;3.80
1476;DHT22;730;48.870;12.542;2023-01-23T07:34:15;1.30;3.80
1476;DHT22;730;48.870;12.542;2023-01-23T07:36:41;1.30;3.40
1476;DHT22;730;48.870;12.542;2023-01-23T07:39:08;1.40;3.40
1476;DHT22;730;48.870;12.542;2023-01-23T07:41:34;1.40;3.10
1476;DHT22;730;48.870;12.542;2023-01-23T07:44:00;1.40;2.70
1476;DHT22;730;48.870;12.542;2023-01-23T07:46:26;1.40;2.70
1476;DHT22;730;48.870;12.542;2023-01-23T07:48:53;1.50;3.20
1476;DHT22;730;48.870;12.542;2023-01-23T07:51:21;1.40;3.10
1476;DHT22;730;48.870;12.542;2023-01-23T07:53:47;1.50;3.30
1476;DHT22;730;48.870;12.542;2023-01-23T07:56:13;1.50;2.70
1476;DHT22;730;48.870;12.542;2023-01-23T07:58:39;1.50;3.10
1476;DHT22;730;48.870;12.542;2023-01-23T08:01:09;1.50;2.70
1476;DHT22;730;48.870;12.542;2023-01-23T08:03:35;1.40;2.70
1476;DHT22;730;48.870;12.542;2023-01-23T08:06:02;1.50;3.20
1476;DHT22;730;48.870;12.542;2023-01-23T08:08:28;1.50;3.50
1476;DHT22;730;48.870;12.542;2023-01-23T08:10:55;1.50;3.30
1476;DHT22;730;48.870;12.542;2023-01-23T08:13:21;1.60;3.40
1476;DHT22;730;48.870;12.542;2023-01-23T08:15:47;1.70;3.70
1476;DHT22;730;48.870;12.542;2023-01-23T08:18:13;1.70;3.60
1476;DHT22;730;48.870;12.542;2023-01-23T08:20:39;1.80;3.60
1476;DHT22;730;48.870;12.542;2023-01-23T08:23:05;1.80;3.80
1476;DHT22;730;48.870;12.542;2023-01-23T08:25:31;1.90;4.20
1476;DHT22;730;48.870;12.542;2023-01-23T08:27:57;1.90;4.30
1476;DHT22;730;48.870;12.542;2023-01-23T08:30:23;2.00;4.10
1476;DHT22;730;48.870;12.542;2023-01-23T08:32:49;2.00;4.20
1476;DHT22;730;48.870;12.542;2023-01-23T08:35:15;2.10;4.00
1476;DHT22;730;48.870;12.542;2023-01-23T08:37:45;2.10;3.70
1476;DHT22;730;48.870;12.542;2023-01-23T08:40:12;2.20;3.40
1476;DHT22;730;48.870;12.542;2023-01-23T08:42:38;2.20;3.10
1476;DHT22;730;48.870;12.542;2023-01-23T08:45:05;2.20;2.80
1476;DHT22;730;48.870;12.542;2023-01-23T08:47:31;2.30;2.90
1476;DHT22;730;48.870;12.542;2023-01-23T08:50:01;2.30;2.80
1476;DHT22;730;48.870;12.542;2023-01-23T08:52:28;2.40;2.60
1476;DHT22;730;48.870;12.542;2023-01-23T08:54:54;2.40;2.50
1476;DHT22;730;48.870;12.542;2023-01-23T08:57:20;2.40;2.40
1476;DHT22;730;48.870;12.542;2023-01-23T08:59:46;2.40;2.90
1476;DHT22;730;48.870;12.542;2023-01-23T09:02:12;2.40;3.30
1476;DHT22;730;48.870;12.542;2023-01-23T09:04:38;2.50;3.20
1476;DHT22;730;48.870;12.542;2023-01-23T09:07:05;2.40;2.60
1476;DHT22;730;48.870;12.542;2023-01-23T09:09:31;2.50;3.00
1476;DHT22;730;48.870;12.542;2023-01-23T09:11:57;2.40;2.80
1476;DHT22;730;48.870;12.542;2023-01-23T09:14:23;2.50;3.00
1476;DHT22;730;48.870;12.542;2023-01-23T09:16:49;2.50;2.60
1476;DHT22;730;48.870;12.542;2023-01-23T09:19:15;2.60;3.00
1476;DHT22;730;48.870;12.542;2023-01-23T09:21:41;2.60;2.90
1476;DHT22;730;48.870;12.542;2023-01-23T09:24:07;2.70;2.60
1476;DHT22;730;48.870;12.542;2023-01-23T09:26:33;2.70;2.70
1476;DHT22;730;48.870;12.542;2023-01-23T09:29:05;2.80;2.50
1476;DHT22;730;48.870;12.542;2023-01-23T09:31:31;2.90;2.40
1476;DHT22;730;48.870;12.542;2023-01-23T09:33:57;3.00;2.30
1476;DHT22;730;48.870;12.542;2023-01-23T09:36:23;3.00;1.70
1476;DHT22;730;48.870;12.542;2023-01-23T09:38:49;3.10;1.80
1476;DHT22;730;48.870;12.542;2023-01-23T09:41:18;3.20;1.60
1476;DHT22;730;48.870;12.542;2023-01-23T09:44:09;3.20;1.30
1476;DHT22;730;48.870;12.542;2023-01-23T09:46:57;3.30;1.10
1476;DHT22;730;48.870;12.542;2023-01-23T09:49:50;3.40;1.00
1476;DHT22;730;48.870;12.542;2023-01-23T09:52:36;3.50;1.00
1476;DHT22;730;48.870;12.542;2023-01-23T09:55:17;3.50;1.00
1476;DHT22;730;48.870;12.542;2023-01-23T09:57:56;3.60;1.00
1476;DHT22;730;48.870;12.542;2023-01-23T10:00:32;3.60;1.00
1476;DHT22;730;48.870;12.542;2023-01-23T10:03:10;3.70;1.00
1476;DHT22;730;48.870;12.542;2023-01-23T10:06:22;3.80;1.00
1476;DHT22;730;48.870;12.542;2023-01-23T10:08:56;3.80;1.00
1476;DHT22;730;48.870;12.542;2023-01-23T10:11:37;3.90;1.00
1476;DHT22;730;48.870;12.542;2023-01-23T10:23:17;4.20;1.00
1476;DHT22;730;48.870;12.542;2023-01-23T10:25:49;4.30;1.00
1476;DHT22;730;48.870;12.542;2023-01-23T10:28:35;4.40;1.00
1476;DHT22;730;48.870;12.542;2023-01-23T10:31:11;4.40;1.00
1476;DHT22;730;48.870;12.542;2023-01-23T10:33:55;4.50;1.00
1476;DHT22;730;48.870;12.542;2023-01-23T10:36:55;4.50;1.00
1476;DHT22;730;48.870;12.542;2023-01-23T10:39:26;4.60;1.00
1476;DHT22;730;48.870;12.542;2023-01-23T10:41:52;4.70;1.00
1476;DHT22;730;48.870;12.542;2023-01-23T10:44:19;4.70;1.00
1476;DHT22;730;48.870;12.542;2023-01-23T10:46:47;4.80;1.00
1476;DHT22;730;48.870;12.542;2023-01-23T10:49:32;4.80;1.00
1476;DHT22;730;48.870;12.542;2023-01-23T10:52:00;4.90;1.00
1476;DHT22;730;48.870;12.542;2023-01-23T10:54:27;5.00;1.00
1476;DHT22;730;48.870;12.542;2023-01-23T10:59:57;5.10;1.00
1476;DHT22;730;48.870;12.542;2023-01-23T11:02:41;5.10;1.00
1476;DHT22;730;48.870;12.542;2023-01-23T11:05:37;5.20;1.00
1476;DHT22;730;48.870;12.542;2023-01-23T11:08:27;5.30;1.00
1476;DHT22;730;48.870;12.542;2023-01-23T11:13:44;5.50;1.00
1476;DHT22;730;48.870;12.542;2023-01-23T11:16:19;5.60;1.00
1476;DHT22;730;48.870;12.542;2023-01-23T11:18:52;5.70;1.00
1476;DHT22;730;48.870;12.542;2023-01-23T11:21:26;5.80;1.00
1476;DHT22;730;48.870;12.542;2023-01-23T11:26:44;5.90;1.00
1476;DHT22;730;48.870;12.542;2023-01-23T11:29:21;6.00;1.00
1476;DHT22;730;48.870;12.542;2023-01-23T11:32:00;6.00;1.00
1476;DHT22;730;48.870;12.542;2023-01-23T11:34:41;6.10;1.00
1476;DHT22;730;48.870;12.542;2023-01-23T11:37:20;6.20;1.00
1476;DHT22;730;48.870;12.542;2023-01-23T11:40:06;6.30;1.00
1476;DHT22;730;48.870;12.542;2023-01-23T11:42:37;6.30;1.00
1476;DHT22;730;48.870;12.542;2023-01-23T11:45:23;6.40;1.00
1476;DHT22;730;48.870;12.542;2023-01-23T11:50:49;6.50;1.00
1476;DHT22;730;48.870;12.542;2023-01-23T11:53:40;6.50;1.00
1476;DHT22;730;48.870;12.542;2023-01-23T12:04:15;6.70;1.00
1476;DHT22;730;48.870;12.542;2023-01-23T12:13:12;6.80;1.00
1476;DHT22;730;48.870;12.542;2023-01-23T12:15:17;6.90;1.00
1476;DHT22;730;48.870;12.542;2023-01-23T12:23:55;7.30;1.00
1476;DHT22;730;48.870;12.542;2023-01-23T12:26:25;7.40;1.00
1476;DHT22;730;48.870;12.542;2023-01-23T12:37:45;8.20;1.00
1476;DHT22;730;48.870;12.542;2023-01-23T12:40:28;8.40;1.00
1476;DHT22;730;48.870;12.542;2023-01-23T12:46:07;8.80;1.00
1476;DHT22;730;48.870;12.542;2023-01-23T12:48:41;8.80;1.00
1476;DHT22;730;48.870;12.542;2023-01-23T12:51:24;8.60;1.00
1476;DHT22;730;48.870;12.542;2023-01-23T12:53:54;8.60;1.00
1476;DHT22;730;48.870;12.542;2023-01-23T12:56:28;8.60;1.00
1476;DHT22;730;48.870;12.542;2023-01-23T13:12:40;8.20;1.00
1476;DHT22;730;48.870;12.542;2023-01-23T13:20:34;8.70;1.00
1476;DHT22;730;48.870;12.542;2023-01-23T13:28:49;8.90;1.00
1476;DHT22;730;48.870;12.542;2023-01-23T13:31:41;8.80;1.00
1476;DHT22;730;48.870;12.542;2023-01-23T13:34:33;8.70;1.00
1476;DHT22;730;48.870;12.542;2023-01-23T13:37:42;8.50;1.00
1476;DHT22;730;48.870;12.542;2023-01-23T13:40:22;8.40;1.00
1476;DHT22;730;48.870;12.542;2023-01-23T13:42:49;8.50;1.00
1476;DHT22;730;48.870;12.542;2023-01-23T13:45:22;8.70;1.00
1476;DHT22;730;48.870;12.542;2023-01-23T13:48:58;8.60;1.00
1476;DHT22;730;48.870;12.542;2023-01-23T13:51:18;8.70;1.00
1476;DHT22;730;48.870;12.542;2023-01-23T13:53:47;9.00;1.00
1476;DHT22;730;48.870;12.542;2023-01-23T13:56:34;9.20;1.00
1476;DHT22;730;48.870;12.542;2023-01-23T14:01:55;9.20;1.00
1476;DHT22;730;48.870;12.542;2023-01-23T14:04:54;8.90;1.00
1476;DHT22;730;48.870;12.542;2023-01-23T14:07:42;8.80;1.00
1476;DHT22;730;48.870;12.542;2023-01-23T14:12:38;8.20;1.00
1476;DHT22;730;48.870;12.542;2023-01-23T14:15:19;8.10;1.00
1476;DHT22;730;48.870;12.542;2023-01-23T14:18:14;7.80;1.00
1476;DHT22;730;48.870;12.542;2023-01-23T14:20:45;7.60;1.00
1476;DHT22;730;48.870;12.542;2023-01-23T14:23:27;7.20;1.00
1476;DHT22;730;48.870;12.542;2023-01-23T14:25:55;7.10;1.00
1476;DHT22;730;48.870;12.542;2023-01-23T14:28:21;6.90;1.00
1476;DHT22;730;48.870;12.542;2023-01-23T14:30:56;6.70;1.00
1476;DHT22;730;48.870;12.542;2023-01-23T14:33:23;6.50;1.00
1476;DHT22;730;48.870;12.542;2023-01-23T14:35:49;6.20;1.00
1476;DHT22;730;48.870;12.542;2023-01-23T14:38:27;6.10;1.00
1476;DHT22;730;48.870;12.542;2023-01-23T14:40:55;6.00;1.00
1476;DHT22;730;48.870;12.542;2023-01-23T14:43:24;5.90;1.00
1476;DHT22;730;48.870;12.542;2023-01-23T14:46:08;5.90;1.00
1476;DHT22;730;48.870;12.542;2023-01-23T14:48:40;5.70;1.00
1476;DHT22;730;48.870;12.542;2023-01-23T14:51:22;5.60;1.00
1476;DHT22;730;48.870;12.542;2023-01-23T14:54:02;5.50;1.00
1476;DHT22;730;48.870;12.542;2023-01-23T14:56:32;5.50;1.00
1476;DHT22;730;48.870;12.542;2023-01-23T14:59:04;5.40;1.00
1476;DHT22;730;48.870;12.542;2023-01-23T15:01:32;5.30;1.00
1476;DHT22;730;48.870;12.542;2023-01-23T15:04:03;5.30;1.00
1476;DHT22;730;48.870;12.542;2023-01-23T15:06:31;5.20;1.00
1476;DHT22;730;48.870;12.542;2023-01-23T15:09:14;5.10;1.00
1476;DHT22;730;48.870;12.542;2023-01-23T15:11:45;5.20;1.00
1476;DHT22;730;48.870;12.542;2023-01-23T15:14:22;5.20;1.00
1476;DHT22;730;48.870;12.542;2023-01-23T15:16:50;5.30;1.00
1476;DHT22;730;48.870;12.542;2023-01-23T15:19:23;5.30;1.00
1476;DHT22;730;48.870;12.542;2023-01-23T15:22:07;5.30;1.00
1476;DHT22;730;48.870;12.542;2023-01-23T15:24:34;5.20;1.00
1476;DHT22;730;48.870;12.542;2023-01-23T15:27:18;5.10;1.00
1476;DHT22;730;48.870;12.542;2023-01-23T15:29:48;5.10;1.00
1476;DHT22;730;48.870;12.542;2023-01-23T15:32:24;5.10;1.00
1476;DHT22;730;48.870;12.542;2023-01-23T15:34:55;5.10;1.00
1476;DHT22;730;48.870;12.542;2023-01-23T15:37:25;5.10;1.00
1476;DHT22;730;48.870;12.542;2023-01-23T15:39:57;5.10;1.00
1476;DHT22;730;48.870;12.542;2023-01-23T15:42:32;5.20;1.00
1476;DHT22;730;48.870;12.542;2023-01-23T15:44:58;5.20;1.00
1476;DHT22;730;48.870;12.542;2023-01-23T15:47:29;5.20;1.00
1476;DHT22;730;48.870;12.542;2023-01-23T15:49:55;5.20;1.00
1476;DHT22;730;48.870;12.542;2023-01-23T15:52:27;5.10;1.00
1476;DHT22;730;48.870;12.542;2023-01-23T15:54:59;5.00;1.00
1476;DHT22;730;48.870;12.542;2023-01-23T15:57:26;5.00;1.00
1476;DHT22;730;48.870;12.542;2023-01-23T15:59:52;4.90;1.00
1476;DHT22;730;48.870;12.542;2023-01-23T16:02:20;4.80;1.00
1476;DHT22;730;48.870;12.542;2023-01-23T16:04:47;4.80;1.00
1476;DHT22;730;48.870;12.542;2023-01-23T16:07:23;4.80;1.00
1476;DHT22;730;48.870;12.542;2023-01-23T16:09:50;4.70;1.00
1476;DHT22;730;48.870;12.542;2023-01-23T16:12:18;4.80;1.00
1476;DHT22;730;48.870;12.542;2023-01-23T16:14:46;4.80;1.00
1476;DHT22;730;48.870;12.542;2023-01-23T16:17:13;4.80;1.00
1476;DHT22;730;48.870;12.542;2023-01-23T16:19:39;4.80;1.00
1476;DHT22;730;48.870;12.542;2023-01-23T16:22:10;4.70;1.00
1476;DHT22;730;48.870;12.542;2023-01-23T16:24:38;4.60;1.00
1476;DHT22;730;48.870;12.542;2023-01-23T16:27:05;4.50;1.00
1476;DHT22;730;48.870;12.542;2023-01-23T16:29:32;4.50;1.00
1476;DHT22;730;48.870;12.542;2023-01-23T16:32:01;4.60;1.00
1476;DHT22;730;48.870;12.542;2023-01-23T16:34:27;4.60;1.00
1476;DHT22;730;48.870;12.542;2023-01-23T16:36:56;4.60;1.00
1476;DHT22;730;48.870;12.542;2023-01-23T16:39:24;4.60;1.00
1476;DHT22;730;48.870;12.542;2023-01-23T16:41:51;4.60;1.00
1476;DHT22;730;48.870;12.542;2023-01-23T16:44:20;4.70;1.00
1476;DHT22;730;48.870;12.542;2023-01-23T16:46:50;4.70;1.00
1476;DHT22;730;48.870;12.542;2023-01-23T16:49:16;4.70;1.00
1476;DHT22;730;48.870;12.542;2023-01-23T16:52:01;4.70;1.00
1476;DHT22;730;48.870;12.542;2023-01-23T16:54:28;4.70;1.00
1476;DHT22;730;48.870;12.542;2023-01-23T16:56:56;4.70;1.00
1476;DHT22;730;48.870;12.542;2023-01-23T16:59:33;4.60;1.00
1476;DHT22;730;48.870;12.542;2023-01-23T17:02:06;4.60;1.00
1476;DHT22;730;48.870;12.542;2023-01-23T17:04:40;4.70;1.00
1476;DHT22;730;48.870;12.542;2023-01-23T17:07:12;4.70;1.00
1476;DHT22;730;48.870;12.542;2023-01-23T17:09:39;4.60;1.00
1476;DHT22;730;48.870;12.542;2023-01-23T17:12:05;4.60;1.00
1476;DHT22;730;48.870;12.542;2023-01-23T17:14:32;4.60;1.00
1476;DHT22;730;48.870;12.542;2023-01-23T17:17:03;4.60;1.00
1476;DHT22;730;48.870;12.542;2023-01-23T17:19:35;4.40;1.00
1476;DHT22;730;48.870;12.542;2023-01-23T17:22:04;4.40;1.00
1476;DHT22;730;48.870;12.542;2023-01-23T17:24:31;4.40;1.00
1476;DHT22;730;48.870;12.542;2023-01-23T17:26:57;4.30;1.00
1476;DHT22;730;48.870;12.542;2023-01-23T17:29:23;4.20;1.00
1476;DHT22;730;48.870;12.542;2023-01-23T17:31:50;4.20;1.00
1476;DHT22;730;48.870;12.542;2023-01-23T17:34:23;4.30;1.00
1476;DHT22;730;48.870;12.542;2023-01-23T17:36:51;4.20;1.00
1476;DHT22;730;48.870;12.542;2023-01-23T17:39:19;4.10;1.00
1476;DHT22;730;48.870;12.542;2023-01-23T17:41:45;4.10;1.00
1476;DHT22;730;48.870;12.542;2023-01-23T17:44:11;4.10;1.00
1476;DHT22;730;48.870;12.542;2023-01-23T17:46:38;4.10;1.00
1476;DHT22;730;48.870;12.542;2023-01-23T17:49:27;4.00;1.00
1476;DHT22;730;48.870;12.542;2023-01-23T17:51:57;3.90;1.00
1476;DHT22;730;48.870;12.542;2023-01-23T17:54:23;3.90;1.00
1476;DHT22;730;48.870;12.542;2023-01-23T17:56:52;3.80;1.00
1476;DHT22;730;48.870;12.542;2023-01-23T17:59:18;3.80;1.00
1476;DHT22;730;48.870;12.542;2023-01-23T18:01:44;3.80;1.00
1476;DHT22;730;48.870;12.542;2023-01-23T18:04:20;3.70;1.00
1476;DHT22;730;48.870;12.542;2023-01-23T18:06:47;3.70;1.00
1476;DHT22;730;48.870;12.542;2023-01-23T18:09:14;3.60;1.00
1476;DHT22;730;48.870;12.542;2023-01-23T18:11:43;3.60;1.00
1476;DHT22;730;48.870;12.542;2023-01-23T18:14:40;3.40;1.00
1476;DHT22;730;48.870;12.542;2023-01-23T18:17:44;3.40;1.00
1476;DHT22;730;48.870;12.542;2023-01-23T18:20:19;3.30;1.00
1476;DHT22;730;48.870;12.542;2023-01-23T18:22:47;3.30;1.00
1476;DHT22;730;48.870;12.542;2023-01-23T18:25:15;3.20;1.00
1476;DHT22;730;48.870;12.542;2023-01-23T18:27:41;3.20;1.00
1476;DHT22;730;48.870;12.542;2023-01-23T18:30:33;3.20;1.00